createdAt,value
2024-04-08T00:00:43.502Z,101608.19
2024-04-08T00:05:46.562Z,101610.63
2024-04-08T00:10:49.557Z,101594.94
2024-04-08T00:16:00.201Z,101598.25
2024-04-08T00:21:07.255Z,101592.19
2024-04-08T00:26:10.614Z,101593.31
2024-04-08T00:31:14.817Z,101590.38
2024-04-08T00:36:17.883Z,101590.66
2024-04-08T00:41:20.850Z,101577.63
2024-04-08T00:46:24.964Z,101578.81
2024-04-08T00:51:28.646Z,101578.91
2024-04-08T00:56:31.927Z,101568.31
2024-04-08T01:01:35.445Z,101566.44
2024-04-08T01:06:38.997Z,101571.00
2024-04-08T01:11:44.716Z,101549.63
2024-04-08T01:16:48.742Z,101558.28
2024-04-08T01:21:52.320Z,101555.06
2024-04-08T01:26:55.220Z,101557.13
2024-04-08T01:31:58.220Z,101545.72
2024-04-08T01:37:01.708Z,101543.59
2024-04-08T01:42:04.833Z,101539.72
2024-04-08T01:47:08.657Z,101530.06
2024-04-08T01:52:11.592Z,101528.91
2024-04-08T01:57:14.514Z,101529.31
2024-04-08T02:02:18.103Z,101514.97
2024-04-08T02:07:21.000Z,101501.63
2024-04-08T02:12:23.867Z,101501.22
2024-04-08T02:17:27.743Z,101503.28
2024-04-08T02:22:30.788Z,101500.97
2024-04-08T02:27:34.204Z,101491.84
2024-04-08T02:32:37.223Z,101495.78
2024-04-08T02:37:40.104Z,101499.28
2024-04-08T02:42:44.545Z,101479.59
2024-04-08T02:47:47.558Z,101473.66
2024-04-08T02:52:50.446Z,101471.97
2024-04-08T02:57:53.998Z,101465.69
2024-04-08T03:02:56.956Z,101472.53
2024-04-08T03:08:00.118Z,101460.00
2024-04-08T03:13:03.212Z,101456.03
2024-04-08T03:18:08.432Z,101447.75
2024-04-08T03:23:11.339Z,101440.56
2024-04-08T03:28:15.088Z,101428.63
2024-04-08T03:33:23.355Z,101420.16
2024-04-08T03:38:26.220Z,101418.22
2024-04-08T03:43:30.071Z,101402.41
2024-04-08T03:48:34.844Z,101398.16
2024-04-08T03:53:38.095Z,101388.41
2024-04-08T03:58:43.076Z,101385.88
2024-04-08T04:03:45.976Z,101360.66
2024-04-08T04:08:49.903Z,101350.47
2024-04-08T04:13:53.238Z,101345.94
2024-04-08T04:18:57.081Z,101326.19
2024-04-08T04:24:00.035Z,101315.09
2024-04-08T04:29:03.202Z,101311.31
2024-04-08T04:34:06.127Z,101308.66
2024-04-08T04:39:11.841Z,101294.63
2024-04-08T04:44:14.940Z,101283.19
2024-04-08T04:49:19.133Z,101277.97
2024-04-08T04:54:21.955Z,101265.41
2024-04-08T04:59:25.314Z,101239.41
2024-04-08T05:04:28.381Z,101242.25
2024-04-08T05:09:31.346Z,101224.38
2024-04-08T05:14:35.542Z,101213.69
2024-04-08T05:19:38.766Z,101208.53
2024-04-08T05:24:41.640Z,101197.06
2024-04-08T05:29:44.906Z,101186.75
2024-04-08T05:34:47.806Z,101179.94
2024-04-08T05:39:51.076Z,101161.50
2024-04-08T05:44:57.698Z,101148.50
2024-04-08T05:50:01.165Z,101162.16
2024-04-08T05:55:06.054Z,101147.63
2024-04-08T06:00:12.429Z,101117.56
2024-04-08T06:05:15.475Z,101109.25
2024-04-08T06:10:22.238Z,101098.41
2024-04-08T06:15:25.770Z,101080.75
2024-04-08T06:20:29.442Z,101067.16
2024-04-08T06:25:33.790Z,101051.81
2024-04-08T06:30:37.878Z,101048.59
2024-04-08T06:35:48.529Z,101045.03
2024-04-08T06:40:51.904Z,101027.91
2024-04-08T06:46:02.908Z,101012.25
2024-04-08T06:51:06.241Z,101006.69
2024-04-08T06:56:10.088Z,100997.72
2024-04-08T07:01:14.039Z,100985.44
2024-04-08T07:06:17.256Z,100988.47
2024-04-08T07:11:20.257Z,100982.25
2024-04-08T07:16:23.424Z,100975.97
2024-04-08T07:21:26.489Z,100961.50
2024-04-08T07:26:30.582Z,100959.69
2024-04-08T07:31:34.762Z,100945.94
2024-04-08T07:36:37.951Z,100934.75
2024-04-08T07:41:41.029Z,100919.69
2024-04-08T07:46:44.353Z,100921.47
2024-04-08T07:51:47.271Z,100907.75
2024-04-08T07:56:50.317Z,100909.75
2024-04-08T08:01:53.700Z,100892.31
2024-04-08T08:06:56.689Z,100885.16
2024-04-08T08:11:59.738Z,100876.84
2024-04-08T08:17:04.130Z,100856.84
2024-04-08T08:22:08.563Z,100849.38
2024-04-08T08:27:11.446Z,100841.00
2024-04-08T08:32:15.418Z,100832.44
2024-04-08T08:37:18.428Z,100809.44
2024-04-08T08:42:23.239Z,100801.25
2024-04-08T08:47:26.238Z,100800.09
2024-04-08T08:52:29.731Z,100796.38
2024-04-08T08:57:33.765Z,100764.03
2024-04-08T09:02:39.641Z,100760.28
2024-04-08T09:07:42.754Z,100748.50
2024-04-08T09:12:46.105Z,100746.66
2024-04-08T09:17:49.295Z,100732.75
2024-04-08T09:22:52.228Z,100733.88
2024-04-08T09:27:56.004Z,100725.38
2024-04-08T09:32:59.456Z,100710.56
2024-04-08T09:38:04.081Z,100700.50
2024-04-08T09:43:08.791Z,100690.28
2024-04-08T09:48:15.130Z,100683.78
2024-04-08T09:53:18.578Z,100688.44
2024-04-08T09:58:23.388Z,100684.16
2024-04-08T10:03:27.237Z,100677.22
2024-04-08T10:08:30.490Z,100675.78
2024-04-08T10:13:33.715Z,100661.97
2024-04-08T10:18:53.472Z,100649.34
2024-04-08T10:23:56.783Z,100640.78
2024-04-08T10:29:00.173Z,100634.03
2024-04-08T10:34:03.200Z,100619.69
2024-04-08T10:39:10.901Z,100616.91
2024-04-08T10:44:14.225Z,100611.31
2024-04-08T10:49:17.815Z,100607.66
2024-04-08T10:54:20.955Z,100593.81
2024-04-08T10:59:24.461Z,100590.22
2024-04-08T11:04:29.990Z,100573.81
2024-04-08T11:09:32.840Z,100563.16
2024-04-08T11:14:36.469Z,100552.91
2024-04-08T11:19:41.295Z,100547.69
2024-04-08T11:24:44.490Z,100548.47
2024-04-08T11:29:47.951Z,100548.56
2024-04-08T11:34:51.899Z,100535.50
2024-04-08T11:39:54.782Z,100533.69
2024-04-08T11:45:06.916Z,100524.84
2024-04-08T11:50:11.755Z,100518.75
2024-04-08T11:55:14.682Z,100517.69
2024-04-08T12:00:22.453Z,100502.84
2024-04-08T12:05:25.585Z,100490.91
2024-04-08T12:10:28.470Z,100484.91
2024-04-08T12:15:31.625Z,100479.66
2024-04-08T12:20:34.765Z,100459.69
2024-04-08T12:25:38.273Z,100461.06
2024-04-08T12:30:44.246Z,100455.75
2024-04-08T12:35:47.896Z,100454.53
2024-04-08T12:40:51.689Z,100441.44
2024-04-08T12:45:56.686Z,100443.78
2024-04-08T12:50:59.784Z,100445.19
2024-04-08T12:56:05.000Z,100439.81
2024-04-08T13:01:08.577Z,100436.84
2024-04-08T13:06:12.101Z,100435.53
2024-04-08T13:11:16.727Z,100426.56
2024-04-08T13:16:20.682Z,100419.84
2024-04-08T13:21:27.739Z,100406.75
2024-04-08T13:26:33.593Z,100389.22
2024-04-08T13:31:36.855Z,100398.22
2024-04-08T13:36:39.766Z,100385.47
2024-04-08T13:41:42.698Z,100376.63
2024-04-08T13:46:46.018Z,100384.22
2024-04-08T13:51:59.494Z,100373.22
2024-04-08T13:57:02.775Z,100368.81
2024-04-08T14:02:07.043Z,100358.59
2024-04-08T14:07:10.130Z,100357.72
2024-04-08T14:12:13.088Z,100344.25
2024-04-08T14:17:18.785Z,100339.34
2024-04-08T14:22:23.891Z,100333.28
2024-04-08T14:27:26.842Z,100326.53
2024-04-08T14:32:30.243Z,100327.34
2024-04-08T14:37:50.819Z,100327.41
2024-04-08T14:42:57.254Z,100310.34
2024-04-08T14:48:01.557Z,100302.75
2024-04-08T14:53:05.773Z,100294.97
2024-04-08T14:58:09.341Z,100288.19
2024-04-08T15:03:13.475Z,100285.56
2024-04-08T15:08:18.562Z,100278.38
2024-04-08T15:13:22.179Z,100271.84
2024-04-08T15:18:26.973Z,100256.84
2024-04-08T15:23:32.391Z,100270.56
2024-04-08T15:28:35.677Z,100261.56
2024-04-08T15:33:38.814Z,100259.88
2024-04-08T15:38:43.146Z,100241.00
2024-04-08T15:43:46.672Z,100233.72
2024-04-08T15:48:50.890Z,100224.50
2024-04-08T15:53:54.172Z,100223.00
2024-04-08T15:58:57.914Z,100210.97
2024-04-08T16:04:01.265Z,100207.09
2024-04-08T16:09:10.460Z,100199.16
2024-04-08T16:14:13.790Z,100188.91
2024-04-08T16:19:16.622Z,100190.47
2024-04-08T16:24:20.157Z,100190.63
2024-04-08T16:29:23.359Z,100184.06
2024-04-08T16:34:26.408Z,100181.25
2024-04-08T16:39:29.619Z,100168.22
2024-04-08T16:44:34.382Z,100162.88
2024-04-08T16:49:37.340Z,100153.22
2024-04-08T16:54:42.797Z,100141.81
2024-04-08T16:59:45.829Z,100131.97
2024-04-08T17:04:49.059Z,100120.00
2024-04-08T17:09:52.191Z,100103.34
2024-04-08T17:14:55.526Z,100095.84
2024-04-08T17:19:58.311Z,100081.34
2024-04-08T17:25:01.535Z,100079.53
2024-04-08T17:30:07.792Z,100072.97
2024-04-08T17:35:10.916Z,100055.47
2024-04-08T17:40:13.774Z,100055.34
2024-04-08T17:45:17.269Z,100043.63
2024-04-08T17:50:21.387Z,100027.19
2024-04-08T17:55:25.504Z,100022.38
2024-04-08T18:00:28.588Z,100013.25
2024-04-08T18:05:31.869Z,100000.50
2024-04-08T18:10:35.056Z,99993.72
2024-04-08T18:15:39.036Z,99988.00
2024-04-08T18:20:42.630Z,99984.53
2024-04-08T18:25:55.424Z,99977.81
2024-04-08T18:31:11.700Z,99969.00
2024-04-08T18:36:15.923Z,99964.94
2024-04-08T18:41:22.212Z,99953.06
2024-04-08T18:46:26.652Z,99953.94
2024-04-08T18:51:29.839Z,99952.41
2024-04-08T18:56:32.828Z,99938.09
2024-04-08T19:01:36.599Z,99938.59
2024-04-08T19:06:39.737Z,99922.94
2024-04-08T19:11:48.338Z,99924.00
2024-04-08T19:16:58.569Z,99913.09
2024-04-08T19:22:01.679Z,99901.13
2024-04-08T19:27:04.938Z,99885.69
2024-04-08T19:32:08.433Z,99883.38
2024-04-08T19:37:11.602Z,99872.00
2024-04-08T19:42:14.831Z,99862.00
2024-04-08T19:47:18.367Z,99856.97
2024-04-08T19:52:21.971Z,99850.94
2024-04-08T19:57:25.115Z,99842.00
2024-04-08T20:02:28.246Z,99840.75
2024-04-08T20:07:31.301Z,99842.56
2024-04-08T20:12:34.356Z,99831.00
2024-04-08T20:17:37.975Z,99821.38
2024-04-08T20:22:40.961Z,99821.63
2024-04-08T20:27:43.953Z,99804.97
2024-04-08T20:32:47.215Z,99793.97
2024-04-08T20:37:50.190Z,99785.94
2024-04-08T20:42:53.833Z,99774.97
2024-04-08T20:47:57.623Z,99764.22
2024-04-08T20:53:00.564Z,99752.09
2024-04-08T20:58:05.914Z,99744.44
2024-04-08T21:03:08.982Z,99734.16
2024-04-08T21:08:12.338Z,99732.59
2024-04-08T21:13:15.875Z,99706.59
2024-04-08T21:18:18.927Z,99699.94
2024-04-08T21:23:22.273Z,99682.69
2024-04-08T21:28:26.131Z,99666.34
2024-04-08T21:33:29.137Z,99658.09
2024-04-08T21:38:32.341Z,99633.66
2024-04-08T21:43:36.019Z,99620.19
2024-04-08T21:48:39.499Z,99620.31
2024-04-08T21:53:42.696Z,99616.19
2024-04-08T21:58:46.597Z,99605.47
2024-04-08T22:03:52.541Z,99598.91
2024-04-08T22:08:55.524Z,99579.69
2024-04-08T22:13:58.562Z,99570.75
2024-04-08T22:19:02.095Z,99567.63
2024-04-08T22:24:05.207Z,99554.38
2024-04-08T22:29:08.573Z,99534.38
2024-04-08T22:34:12.042Z,99517.03
2024-04-08T22:39:15.495Z,99512.94
2024-04-08T22:44:19.325Z,99514.69
2024-04-08T22:49:22.523Z,99501.03
2024-04-08T22:54:25.437Z,99484.78
2024-04-08T22:59:29.790Z,99468.50
2024-04-08T23:04:33.017Z,99471.84
2024-04-08T23:09:36.013Z,99452.41
2024-04-08T23:14:39.439Z,99431.47
2024-04-08T23:19:42.391Z,99427.31
2024-04-08T23:24:45.772Z,99428.84
2024-04-08T23:29:51.889Z,99418.25
2024-04-08T23:34:56.725Z,99419.13
2024-04-08T23:39:59.844Z,99428.59
2024-04-08T23:45:02.967Z,99411.97
2024-04-08T23:50:08.104Z,99396.91
2024-04-08T23:55:11.209Z,99390.53
